Pasinler, Turkey
Current Conditions -  °F | °C
As of 7:50 AM on Tuesday 23 Dec 2014 (Local Time) from LTCE Reporting Station
Broken Clouds Broken Clouds  
Wind Chill: -12°   Ceiling: 8000
Heat Index: -12°   Visibility: 6mi
Dew Point: -14°   Wind: 3mph
Humidity: 85%   Direction: 310°NW
Pressure: 29.97"   Gusts: NA
Location:  39.99°N, 41.69°E
Report Text: LTCE 230450Z 31003KT 9999 SCT030 BKN080 M12/M14 Q1015 NOSIG
Loading
Personal Weather Stations






























Interactive Weather Map New forecast layout! Learn more

10-Day Weather Forecast

Advertisements
Track Severe Weather on mobile